createdAt,value
2023-10-22T00:01:31.136Z,11.70
2023-10-22T00:03:58.247Z,11.60
2023-10-22T00:06:25.279Z,11.60
2023-10-22T00:08:52.339Z,11.60
2023-10-22T00:11:19.389Z,11.60
2023-10-22T00:13:46.227Z,11.60
2023-10-22T00:16:13.263Z,11.50
2023-10-22T00:18:40.106Z,11.50
2023-10-22T00:21:10.218Z,11.40
2023-10-22T00:27:25.173Z,11.40
2023-10-22T00:29:52.228Z,11.40
2023-10-22T00:32:19.129Z,11.40
2023-10-22T00:34:45.975Z,11.30
2023-10-22T00:37:13.190Z,11.30
2023-10-22T00:39:40.039Z,11.40
2023-10-22T00:42:06.997Z,11.40
2023-10-22T00:44:34.014Z,11.30
2023-10-22T00:47:01.155Z,11.40
2023-10-22T00:49:28.163Z,11.40
2023-10-22T00:51:55.853Z,11.30
2023-10-22T00:54:23.301Z,11.20
2023-10-22T00:56:52.666Z,11.10
2023-10-22T00:59:20.000Z,11.10
2023-10-22T01:01:47.251Z,11.10
2023-10-22T01:04:14.283Z,11.10
2023-10-22T01:06:41.359Z,11.10
2023-10-22T01:09:11.264Z,11.10
2023-10-22T01:11:57.526Z,11.10
2023-10-22T01:14:24.287Z,11.10
2023-10-22T01:16:51.158Z,11.10
2023-10-22T01:19:20.821Z,11.00
2023-10-22T01:21:47.757Z,11.10
2023-10-22T01:24:14.909Z,11.10
2023-10-22T01:26:46.347Z,11.00
2023-10-22T01:29:13.457Z,11.00
2023-10-22T01:31:40.585Z,10.90
2023-10-22T01:34:07.656Z,10.80
2023-10-22T01:36:34.558Z,10.80
2023-10-22T01:39:01.717Z,10.80
2023-10-22T01:41:28.636Z,10.80
2023-10-22T01:43:57.315Z,10.70
2023-10-22T01:46:24.304Z,10.70
2023-10-22T01:48:51.232Z,10.70
2023-10-22T01:51:18.331Z,10.60
2023-10-22T01:53:45.365Z,10.50
2023-10-22T01:56:12.168Z,10.50
2023-10-22T01:58:39.584Z,10.50
2023-10-22T02:01:07.347Z,10.40
2023-10-22T02:03:35.674Z,10.40
2023-10-22T02:06:10.927Z,10.30
2023-10-22T02:08:38.226Z,10.30
2023-10-22T02:11:05.123Z,10.30
2023-10-22T02:13:32.297Z,10.30
2023-10-22T02:15:59.340Z,10.30
2023-10-22T02:18:26.503Z,10.30
2023-10-22T02:20:59.107Z,10.50
2023-10-22T02:23:26.476Z,10.40
2023-10-22T02:25:53.414Z,10.40
2023-10-22T02:28:20.727Z,10.40
2023-10-22T02:30:51.988Z,10.50
2023-10-22T02:33:19.111Z,10.60
2023-10-22T02:35:46.998Z,10.70
2023-10-22T02:38:16.488Z,10.70
2023-10-22T02:40:44.759Z,10.80
2023-10-22T02:43:13.078Z,10.70
2023-10-22T02:45:52.717Z,10.80
2023-10-22T02:48:19.998Z,10.80
2023-10-22T02:50:47.515Z,10.90
2023-10-22T02:53:14.948Z,10.70
2023-10-22T02:55:41.811Z,10.80
2023-10-22T02:58:08.584Z,10.70
2023-10-22T03:00:37.528Z,10.70
2023-10-22T03:03:05.558Z,10.70
2023-10-22T03:05:37.425Z,10.70
2023-10-22T03:08:04.952Z,10.70
2023-10-22T03:10:32.027Z,10.60
2023-10-22T03:13:01.118Z,10.60
2023-10-22T03:15:29.112Z,10.60
2023-10-22T03:17:58.435Z,10.60
2023-10-22T03:20:25.979Z,10.50
2023-10-22T03:22:53.230Z,10.50
2023-10-22T03:25:23.359Z,10.50
2023-10-22T03:27:50.899Z,10.50
2023-10-22T03:30:18.748Z,10.50
2023-10-22T03:32:46.379Z,10.60
2023-10-22T03:35:14.394Z,10.60
2023-10-22T03:37:41.918Z,10.70
2023-10-22T03:40:11.130Z,10.70
2023-10-22T03:42:38.355Z,10.60
2023-10-22T03:45:07.275Z,10.60
2023-10-22T03:47:34.298Z,10.70
2023-10-22T03:50:01.183Z,10.80
2023-10-22T03:52:30.277Z,10.80
2023-10-22T03:54:58.157Z,10.90
2023-10-22T03:57:25.372Z,11.00
2023-10-22T03:59:52.455Z,10.90
2023-10-22T04:02:19.517Z,11.10
2023-10-22T04:04:46.553Z,11.10
2023-10-22T04:07:13.553Z,11.10
2023-10-22T04:09:40.400Z,11.10
2023-10-22T04:12:07.740Z,11.20
2023-10-22T04:14:35.846Z,11.30
2023-10-22T04:17:03.013Z,11.30
2023-10-22T04:19:30.080Z,11.40
2023-10-22T04:21:56.887Z,11.30
2023-10-22T04:24:23.640Z,11.30
2023-10-22T04:26:50.621Z,11.30
2023-10-22T04:29:17.551Z,11.20
2023-10-22T04:31:44.255Z,11.20
2023-10-22T04:34:11.290Z,11.30
2023-10-22T04:36:38.044Z,11.30
2023-10-22T04:39:04.837Z,11.40
2023-10-22T04:41:31.720Z,11.40
2023-10-22T04:43:58.656Z,11.40
2023-10-22T04:46:26.108Z,11.50
2023-10-22T04:48:53.116Z,11.50
2023-10-22T04:51:20.085Z,11.60
2023-10-22T04:53:46.986Z,11.70
2023-10-22T04:56:13.775Z,11.70
2023-10-22T04:58:40.565Z,11.70
2023-10-22T05:01:07.413Z,11.80
2023-10-22T05:03:34.606Z,11.80
2023-10-22T05:06:09.733Z,11.80
2023-10-22T05:08:38.058Z,11.90
2023-10-22T05:11:07.049Z,11.90
2023-10-22T05:13:34.106Z,11.80
2023-10-22T05:16:01.088Z,11.90
2023-10-22T05:18:28.213Z,11.90
2023-10-22T05:21:03.099Z,11.90
2023-10-22T05:23:30.250Z,11.90
2023-10-22T05:26:23.560Z,11.90
2023-10-22T05:28:50.363Z,11.80
2023-10-22T05:31:19.651Z,11.80
2023-10-22T05:33:47.347Z,11.80
2023-10-22T05:36:22.835Z,11.80
2023-10-22T05:38:50.247Z,11.70
2023-10-22T05:41:23.913Z,11.80
2023-10-22T05:43:57.830Z,11.70
2023-10-22T05:46:24.962Z,11.60
2023-10-22T05:48:51.868Z,11.70
2023-10-22T05:51:19.168Z,11.70
2023-10-22T05:53:46.772Z,11.70
2023-10-22T05:56:13.606Z,11.70
2023-10-22T05:58:40.617Z,11.80
2023-10-22T06:01:09.926Z,11.70
2023-10-22T06:03:37.086Z,11.80
2023-10-22T06:06:04.612Z,11.80
2023-10-22T06:08:31.564Z,11.80
2023-10-22T06:10:58.356Z,11.90
2023-10-22T06:13:25.500Z,11.90
2023-10-22T06:15:57.446Z,12.00
2023-10-22T06:18:24.475Z,12.00
2023-10-22T06:20:51.364Z,12.00
2023-10-22T06:23:18.156Z,12.00
2023-10-22T06:25:45.611Z,12.00
2023-10-22T06:28:12.843Z,12.10
2023-10-22T06:30:39.714Z,12.10
2023-10-22T06:33:06.529Z,12.10
2023-10-22T06:35:33.849Z,12.10
2023-10-22T06:38:00.606Z,12.20
2023-10-22T06:40:27.397Z,12.30
2023-10-22T06:42:54.281Z,12.30
2023-10-22T06:45:21.221Z,12.30
2023-10-22T06:47:48.494Z,12.40
2023-10-22T06:50:16.461Z,12.40
2023-10-22T06:52:43.930Z,12.50
2023-10-22T06:55:11.657Z,12.50
2023-10-22T06:57:39.770Z,12.60
2023-10-22T07:00:11.038Z,12.60
2023-10-22T07:02:39.133Z,12.70
2023-10-22T07:05:08.680Z,12.80
2023-10-22T07:07:35.578Z,12.80
2023-10-22T07:10:02.287Z,12.80
2023-10-22T07:12:29.184Z,12.90
2023-10-22T07:14:56.630Z,13.00
2023-10-22T07:17:23.733Z,13.00
2023-10-22T07:19:50.661Z,13.00
2023-10-22T07:22:17.473Z,13.00
2023-10-22T07:24:44.832Z,13.00
2023-10-22T07:27:11.733Z,13.00
2023-10-22T07:29:38.621Z,13.00
2023-10-22T07:32:05.958Z,13.00
2023-10-22T07:34:32.825Z,13.10
2023-10-22T07:36:59.598Z,13.10
2023-10-22T07:39:26.436Z,13.20
2023-10-22T07:41:53.419Z,13.20
2023-10-22T07:44:20.359Z,13.30
2023-10-22T07:46:47.127Z,13.30
2023-10-22T07:49:13.977Z,13.40
2023-10-22T07:51:40.785Z,13.50
2023-10-22T07:54:08.974Z,13.50
2023-10-22T07:56:35.915Z,13.50
2023-10-22T07:59:03.345Z,13.50
2023-10-22T08:01:30.274Z,13.40
2023-10-22T08:03:57.258Z,13.40
2023-10-22T08:06:24.140Z,13.40
2023-10-22T08:08:55.775Z,13.30
2023-10-22T08:11:23.158Z,13.30
2023-10-22T08:13:50.034Z,13.30
2023-10-22T08:16:16.925Z,13.30
2023-10-22T08:18:45.076Z,13.40
2023-10-22T08:21:12.361Z,13.40
2023-10-22T08:23:40.114Z,13.40
2023-10-22T08:26:07.606Z,13.40
2023-10-22T08:28:36.513Z,13.40
2023-10-22T08:31:03.636Z,13.40
2023-10-22T08:33:33.019Z,13.50
2023-10-22T08:36:07.515Z,13.50
2023-10-22T08:38:34.411Z,13.60
2023-10-22T08:41:07.498Z,13.60
2023-10-22T08:43:38.642Z,13.70
2023-10-22T08:46:06.637Z,13.80
2023-10-22T08:48:34.314Z,13.80
2023-10-22T08:51:01.944Z,13.80
2023-10-22T08:53:28.933Z,13.90
2023-10-22T08:55:57.800Z,13.90
2023-10-22T08:58:24.754Z,14.00
2023-10-22T09:00:51.657Z,14.00
2023-10-22T09:03:19.998Z,14.10
2023-10-22T09:05:47.897Z,14.30
2023-10-22T09:08:16.442Z,14.60
2023-10-22T09:10:44.214Z,14.70
2023-10-22T09:13:16.746Z,14.70
2023-10-22T09:15:49.123Z,14.60
2023-10-22T09:18:17.131Z,14.60
2023-10-22T09:20:46.293Z,14.50
2023-10-22T09:23:23.618Z,14.40
2023-10-22T09:25:52.414Z,14.20
2023-10-22T09:28:23.375Z,14.10
2023-10-22T09:30:57.178Z,14.00
2023-10-22T09:33:45.274Z,13.90
2023-10-22T09:36:13.705Z,13.90
2023-10-22T09:38:44.832Z,13.80
2023-10-22T09:41:13.707Z,13.70
2023-10-22T09:43:42.707Z,13.70
2023-10-22T09:46:09.760Z,13.80
2023-10-22T09:48:37.124Z,13.90
2023-10-22T09:51:06.460Z,13.90
2023-10-22T09:53:40.375Z,13.90
2023-10-22T09:56:12.254Z,14.00
2023-10-22T09:58:46.401Z,14.10
2023-10-22T10:01:15.397Z,14.20
2023-10-22T10:03:43.550Z,14.30
2023-10-22T10:06:11.045Z,14.40
2023-10-22T10:08:39.804Z,14.40
2023-10-22T10:11:09.711Z,14.50
2023-10-22T10:13:36.710Z,14.60
2023-10-22T10:16:05.390Z,14.70
2023-10-22T10:19:00.324Z,14.80
2023-10-22T10:21:42.357Z,14.90
2023-10-22T10:24:30.209Z,15.00
2023-10-22T10:26:57.662Z,15.00
2023-10-22T10:29:26.644Z,15.10
2023-10-22T10:31:55.287Z,15.20
2023-10-22T10:34:37.740Z,15.40
2023-10-22T10:37:11.237Z,15.30
2023-10-22T10:39:43.404Z,15.30
2023-10-22T10:42:15.515Z,15.40
2023-10-22T10:45:00.717Z,15.40
2023-10-22T10:47:29.159Z,15.60
2023-10-22T10:50:08.158Z,15.60
2023-10-22T10:52:44.049Z,15.70
2023-10-22T10:55:17.125Z,15.70
2023-10-22T10:57:49.508Z,15.80
2023-10-22T11:00:22.829Z,15.80
2023-10-22T11:02:51.637Z,15.90
2023-10-22T11:05:37.631Z,15.80
2023-10-22T11:08:05.704Z,15.70
2023-10-22T11:10:32.601Z,15.70
2023-10-22T11:13:07.626Z,15.70
2023-10-22T11:15:36.528Z,15.70
2023-10-22T11:18:05.785Z,15.70
2023-10-22T11:20:33.654Z,15.80
2023-10-22T11:23:01.220Z,15.80
2023-10-22T11:25:29.496Z,15.80
2023-10-22T11:27:57.103Z,15.80
2023-10-22T11:30:53.116Z,15.90
2023-10-22T11:33:31.285Z,16.00
2023-10-22T11:35:58.125Z,15.90
2023-10-22T11:38:25.114Z,16.00
2023-10-22T11:40:56.604Z,16.10
2023-10-22T11:43:24.630Z,16.20
2023-10-22T11:45:53.670Z,16.30
2023-10-22T11:48:22.233Z,16.30
2023-10-22T11:50:50.717Z,16.40
2023-10-22T11:53:18.315Z,16.40
2023-10-22T11:55:46.752Z,16.60
2023-10-22T11:58:18.780Z,16.80
2023-10-22T12:00:49.313Z,16.90
2023-10-22T12:03:16.993Z,16.90
2023-10-22T12:05:44.094Z,17.00
2023-10-22T12:08:10.982Z,16.90
2023-10-22T12:10:38.012Z,16.80
2023-10-22T12:13:07.906Z,16.80
2023-10-22T12:15:36.333Z,16.80
2023-10-22T12:18:04.268Z,16.70
2023-10-22T12:20:31.675Z,16.60
2023-10-22T12:22:58.782Z,16.60
2023-10-22T12:25:25.593Z,16.70
2023-10-22T12:27:52.714Z,16.70
2023-10-22T12:30:19.960Z,16.60
2023-10-22T12:32:47.739Z,16.50
2023-10-22T12:35:15.410Z,16.50
2023-10-22T12:37:42.477Z,16.90
2023-10-22T12:40:10.422Z,17.00
2023-10-22T12:42:42.407Z,17.10
2023-10-22T12:45:13.056Z,17.00
2023-10-22T12:47:41.161Z,16.90
2023-10-22T12:50:08.356Z,17.00
2023-10-22T12:52:36.615Z,17.00
2023-10-22T12:55:03.871Z,16.90
2023-10-22T12:57:31.060Z,16.70
2023-10-22T12:59:57.986Z,16.60
2023-10-22T13:02:24.884Z,16.50
2023-10-22T13:04:51.805Z,16.50
2023-10-22T13:07:19.835Z,16.30
2023-10-22T13:09:47.201Z,16.30
2023-10-22T13:12:14.012Z,16.20
2023-10-22T13:14:40.902Z,16.20
2023-10-22T13:17:07.915Z,16.10
2023-10-22T13:19:34.909Z,16.00
2023-10-22T13:22:01.826Z,15.90
2023-10-22T13:24:28.696Z,15.90
2023-10-22T13:26:55.589Z,15.80
2023-10-22T13:29:22.541Z,15.70
2023-10-22T13:31:49.852Z,15.70
2023-10-22T13:34:16.582Z,15.60
2023-10-22T13:36:43.344Z,15.60
2023-10-22T13:39:10.670Z,15.60
2023-10-22T13:41:37.814Z,15.50
2023-10-22T13:44:05.938Z,15.50
2023-10-22T13:46:33.020Z,15.50
2023-10-22T13:49:00.210Z,15.50
2023-10-22T13:51:27.124Z,15.50
2023-10-22T13:53:53.945Z,15.50
2023-10-22T13:56:20.710Z,15.50
2023-10-22T13:58:47.613Z,15.60
2023-10-22T14:01:14.828Z,15.60
2023-10-22T14:03:43.654Z,15.70
2023-10-22T14:06:10.746Z,15.70
2023-10-22T14:08:37.552Z,15.80
2023-10-22T14:11:04.679Z,15.80
2023-10-22T14:13:31.594Z,15.80
2023-10-22T14:16:08.148Z,15.80
2023-10-22T14:18:35.067Z,15.60
2023-10-22T14:21:11.874Z,15.70
2023-10-22T14:23:38.998Z,15.60
2023-10-22T14:26:05.887Z,15.60
2023-10-22T14:28:32.986Z,15.50
2023-10-22T14:31:00.153Z,15.50
2023-10-22T14:33:27.075Z,15.50
2023-10-22T14:36:06.837Z,15.50
2023-10-22T14:38:34.031Z,15.40
2023-10-22T14:41:02.559Z,15.40
2023-10-22T14:43:29.798Z,15.40
2023-10-22T14:46:03.287Z,15.40
2023-10-22T14:48:31.376Z,15.40
2023-10-22T14:51:00.385Z,15.50
2023-10-22T14:53:27.722Z,15.50
2023-10-22T14:55:58.874Z,15.70
2023-10-22T14:58:26.296Z,15.80
2023-10-22T15:00:53.379Z,15.90
2023-10-22T15:03:21.402Z,16.00
2023-10-22T15:05:49.899Z,16.00
2023-10-22T15:08:17.172Z,15.90
2023-10-22T15:10:45.958Z,15.80
2023-10-22T15:13:13.310Z,15.80
2023-10-22T15:15:40.994Z,15.70
2023-10-22T15:18:08.873Z,15.60
2023-10-22T15:20:39.950Z,15.60
2023-10-22T15:23:07.793Z,15.60
2023-10-22T15:25:35.531Z,15.40
2023-10-22T15:28:03.564Z,15.30
2023-10-22T15:30:33.520Z,15.30
2023-10-22T15:33:00.413Z,15.20
2023-10-22T15:35:31.090Z,15.10
2023-10-22T15:38:03.162Z,15.10
2023-10-22T15:40:33.638Z,15.00
2023-10-22T15:43:01.053Z,14.90
2023-10-22T15:45:31.031Z,14.90
2023-10-22T15:47:59.527Z,14.80
2023-10-22T15:50:28.373Z,14.80
2023-10-22T15:52:56.067Z,14.80
2023-10-22T15:55:23.177Z,14.70
2023-10-22T15:57:52.988Z,14.70
2023-10-22T16:00:22.671Z,14.70
2023-10-22T16:02:49.720Z,14.70
2023-10-22T16:05:16.525Z,14.70
2023-10-22T16:07:43.312Z,14.60
2023-10-22T16:10:11.863Z,14.50
2023-10-22T16:12:39.725Z,14.50
2023-10-22T16:15:07.974Z,14.50
2023-10-22T16:17:41.708Z,14.40
2023-10-22T16:20:09.671Z,14.30
2023-10-22T16:22:36.833Z,14.30
2023-10-22T16:25:03.989Z,14.20
2023-10-22T16:27:31.432Z,14.10
2023-10-22T16:29:58.405Z,14.20
2023-10-22T16:32:25.438Z,14.20
2023-10-22T16:34:52.417Z,14.10
2023-10-22T16:37:19.152Z,14.10
2023-10-22T16:39:45.938Z,14.00
2023-10-22T16:42:12.871Z,14.10
2023-10-22T16:44:39.846Z,14.10
2023-10-22T16:47:06.800Z,14.10
2023-10-22T16:49:33.577Z,14.10
2023-10-22T16:52:00.476Z,14.10
2023-10-22T16:54:27.471Z,14.10
2023-10-22T16:56:54.489Z,14.10
2023-10-22T16:59:21.342Z,14.10
2023-10-22T17:01:48.126Z,14.10
2023-10-22T17:04:14.941Z,14.00
2023-10-22T17:06:42.096Z,14.00
2023-10-22T17:09:09.006Z,14.00
2023-10-22T17:11:35.945Z,14.00
2023-10-22T17:14:02.770Z,13.90
2023-10-22T17:16:30.002Z,13.90
2023-10-22T17:18:57.494Z,13.90
2023-10-22T17:21:24.581Z,14.00
2023-10-22T17:23:51.447Z,14.00
2023-10-22T17:26:18.332Z,14.00
2023-10-22T17:28:46.440Z,14.00
2023-10-22T17:31:14.912Z,14.00
2023-10-22T17:34:00.924Z,14.00
2023-10-22T17:36:29.101Z,14.00
2023-10-22T17:38:55.907Z,14.10
2023-10-22T17:41:22.767Z,14.00
2023-10-22T17:43:49.529Z,14.00
2023-10-22T17:46:16.672Z,14.00
2023-10-22T17:48:43.846Z,14.00
2023-10-22T17:51:12.439Z,14.00
2023-10-22T17:53:39.756Z,14.00
2023-10-22T17:56:11.529Z,14.00
2023-10-22T17:58:39.520Z,13.90
2023-10-22T18:01:06.826Z,13.80
2023-10-22T18:03:35.649Z,13.80
2023-10-22T18:06:03.360Z,13.80
2023-10-22T18:08:30.624Z,13.90
2023-10-22T18:10:59.089Z,13.80
2023-10-22T18:13:27.381Z,13.70
2023-10-22T18:15:55.872Z,13.70
2023-10-22T18:18:23.386Z,13.80
2023-10-22T18:20:50.333Z,13.80
2023-10-22T18:23:17.471Z,13.80
2023-10-22T18:25:46.570Z,13.80
2023-10-22T18:28:13.446Z,13.80
2023-10-22T18:30:43.431Z,13.70
2023-10-22T18:33:10.412Z,13.70
2023-10-22T18:35:37.396Z,13.60
2023-10-22T18:38:04.274Z,13.60
2023-10-22T18:40:31.275Z,13.60
2023-10-22T18:43:00.435Z,13.60
2023-10-22T18:45:27.599Z,13.60
2023-10-22T18:47:55.712Z,13.50
2023-10-22T18:50:22.666Z,13.50
2023-10-22T18:52:49.740Z,13.60
2023-10-22T18:55:16.649Z,13.50
2023-10-22T18:57:43.755Z,13.50
2023-10-22T19:00:11.787Z,13.40
2023-10-22T19:02:40.623Z,13.40
2023-10-22T19:05:08.373Z,13.30
2023-10-22T19:07:35.330Z,13.40
2023-10-22T19:10:02.295Z,13.30
2023-10-22T19:12:29.046Z,13.20
2023-10-22T19:14:56.066Z,13.10
2023-10-22T19:17:22.859Z,13.00
2023-10-22T19:19:49.892Z,13.00
2023-10-22T19:22:17.825Z,12.90
2023-10-22T19:24:44.709Z,12.90
2023-10-22T19:27:11.533Z,12.80
2023-10-22T19:29:41.384Z,12.80
2023-10-22T19:32:08.484Z,12.70
2023-10-22T19:34:37.854Z,12.60
2023-10-22T19:37:05.079Z,12.60
2023-10-22T19:39:32.289Z,12.60
2023-10-22T19:41:59.225Z,12.50
2023-10-22T19:44:26.196Z,12.50
2023-10-22T19:46:53.060Z,12.40
2023-10-22T19:49:19.763Z,12.40
2023-10-22T19:51:48.511Z,12.40
2023-10-22T19:54:15.415Z,12.30
2023-10-22T19:56:42.249Z,12.20
2023-10-22T19:59:09.199Z,12.10
2023-10-22T20:01:36.126Z,12.10
2023-10-22T20:04:03.185Z,12.00
2023-10-22T20:06:30.146Z,12.00
2023-10-22T20:08:57.151Z,11.90
2023-10-22T20:11:24.666Z,11.90
2023-10-22T20:13:52.171Z,11.90
2023-10-22T20:16:21.252Z,11.80
2023-10-22T20:18:49.609Z,11.70
2023-10-22T20:21:17.659Z,11.70
2023-10-22T20:23:48.232Z,11.60
2023-10-22T20:26:15.859Z,11.60
2023-10-22T20:28:44.199Z,11.60
2023-10-22T20:31:12.081Z,11.60
2023-10-22T20:33:40.666Z,11.50
2023-10-22T20:36:07.850Z,11.50
2023-10-22T20:38:35.111Z,11.40
2023-10-22T20:41:03.928Z,11.30
2023-10-22T20:43:30.887Z,11.40
2023-10-22T20:46:02.799Z,11.40
2023-10-22T20:48:31.288Z,11.30
2023-10-22T20:51:07.433Z,11.30
2023-10-22T20:53:36.835Z,11.30
2023-10-22T20:56:04.906Z,11.30
2023-10-22T20:58:35.306Z,11.20
2023-10-22T21:01:02.875Z,11.20
2023-10-22T21:03:29.845Z,11.10
2023-10-22T21:05:56.868Z,11.10
2023-10-22T21:08:23.742Z,11.00
2023-10-22T21:10:50.876Z,11.00
2023-10-22T21:13:17.896Z,11.00
2023-10-22T21:15:44.878Z,10.90
2023-10-22T21:18:11.751Z,10.90
2023-10-22T21:20:38.706Z,10.80
2023-10-22T21:23:05.497Z,10.80
2023-10-22T21:25:32.347Z,10.80
2023-10-22T21:27:59.180Z,10.80
2023-10-22T21:30:26.236Z,10.80
2023-10-22T21:32:53.129Z,10.90
2023-10-22T21:35:20.058Z,10.90
2023-10-22T21:37:46.843Z,10.90
2023-10-22T21:40:13.737Z,10.90
2023-10-22T21:42:40.686Z,10.90
2023-10-22T21:45:07.794Z,10.80
2023-10-22T21:47:34.625Z,10.80
2023-10-22T21:50:02.149Z,10.80
2023-10-22T21:52:29.003Z,10.80
2023-10-22T21:54:55.938Z,10.70
2023-10-22T21:57:22.850Z,10.60
2023-10-22T21:59:49.675Z,10.60
2023-10-22T22:02:16.666Z,10.50
2023-10-22T22:04:43.549Z,10.40
2023-10-22T22:07:10.564Z,10.40
2023-10-22T22:09:38.736Z,10.40
2023-10-22T22:12:07.524Z,10.30
2023-10-22T22:14:34.481Z,10.20
2023-10-22T22:17:01.364Z,10.10
2023-10-22T22:19:28.147Z,10.10
2023-10-22T22:21:54.936Z,10.10
2023-10-22T22:24:21.876Z,10.10
2023-10-22T22:26:48.735Z,10.00
2023-10-22T22:29:15.568Z,10.00
2023-10-22T22:31:42.478Z,10.00
2023-10-22T22:34:28.446Z,10.00
2023-10-22T22:36:55.411Z,9.80
2023-10-22T22:39:22.221Z,9.80
2023-10-22T22:41:49.813Z,9.70
2023-10-22T22:44:16.618Z,9.70
2023-10-22T22:46:43.619Z,9.70
2023-10-22T22:49:10.886Z,9.70
2023-10-22T22:51:38.223Z,9.60
2023-10-22T22:54:05.039Z,9.60
2023-10-22T22:56:33.160Z,9.70
2023-10-22T22:59:00.086Z,9.60
2023-10-22T23:01:27.050Z,9.70
2023-10-22T23:03:54.005Z,9.60
2023-10-22T23:06:21.042Z,9.60
2023-10-22T23:08:47.957Z,9.50
2023-10-22T23:11:17.056Z,9.50
2023-10-22T23:13:43.917Z,9.50
2023-10-22T23:16:10.786Z,9.40
2023-10-22T23:18:37.762Z,9.40
2023-10-22T23:21:04.649Z,9.30
2023-10-22T23:23:31.454Z,9.40
2023-10-22T23:25:58.296Z,9.40
2023-10-22T23:28:25.149Z,9.40
2023-10-22T23:30:52.128Z,9.30
2023-10-22T23:33:22.119Z,9.30
2023-10-22T23:35:49.445Z,9.30
2023-10-22T23:38:16.248Z,9.40
2023-10-22T23:41:06.554Z,9.40
2023-10-22T23:43:52.822Z,9.30
2023-10-22T23:46:20.649Z,9.30
2023-10-22T23:48:50.317Z,9.40
2023-10-22T23:51:19.795Z,9.50
2023-10-22T23:53:46.624Z,9.50
2023-10-22T23:56:13.432Z,9.50
2023-10-22T23:58:40.158Z,9.50
